<?xml version="1.0" encoding="UTF-8" ?>
<gpx version="1.1" xmlns:xsi="http://www.w3.org/2001/XMLSchema-instance" 
    xmlns="http://www.topografix.com/GPX/1/1"
    xsi:schemaLocation="http://www.topografix.com/GPX/1/1 http://www.topografix.com/GPX/1/1/gpx.xsd" 
    creator="Openrunner - https://www.openrunner.com" >	<trk>
	                   <name>Petite boucle cyclo nord-13997505</name>
						<trkseg>
					<trkpt lat="48.923050" lon="1.687140">
						<ele>52</ele>
						<time>2026-03-25T16:45:08Z</time>
					</trkpt>
					<trkpt lat="48.921440" lon="1.686770">
						<ele>51</ele>
						<time>2026-03-25T16:45:37Z</time>
					</trkpt>
					<trkpt lat="48.921230" lon="1.686740">
						<ele>52</ele>
						<time>2026-03-25T16:45:41Z</time>
					</trkpt>
					<trkpt lat="48.921100" lon="1.686710">
						<ele>52</ele>
						<time>2026-03-25T16:45:43Z</time>
					</trkpt>
					<trkpt lat="48.920190" lon="1.686410">
						<ele>53</ele>
						<time>2026-03-25T16:46:00Z</time>
					</trkpt>
					<trkpt lat="48.919980" lon="1.686270">
						<ele>53</ele>
						<time>2026-03-25T16:46:04Z</time>
					</trkpt>
					<trkpt lat="48.919800" lon="1.686080">
						<ele>53</ele>
						<time>2026-03-25T16:46:08Z</time>
					</trkpt>
					<trkpt lat="48.919270" lon="1.684910">
						<ele>55</ele>
						<time>2026-03-25T16:46:24Z</time>
					</trkpt>
					<trkpt lat="48.918960" lon="1.683980">
						<ele>55</ele>
						<time>2026-03-25T16:46:36Z</time>
					</trkpt>
					<trkpt lat="48.918590" lon="1.683390">
						<ele>54</ele>
						<time>2026-03-25T16:46:46Z</time>
					</trkpt>
					<trkpt lat="48.918220" lon="1.682320">
						<ele>55</ele>
						<time>2026-03-25T16:47:00Z</time>
					</trkpt>
					<trkpt lat="48.918020" lon="1.681540">
						<ele>55</ele>
						<time>2026-03-25T16:47:10Z</time>
					</trkpt>
					<trkpt lat="48.918020" lon="1.681100">
						<ele>56</ele>
						<time>2026-03-25T16:47:15Z</time>
					</trkpt>
					<trkpt lat="48.918080" lon="1.680450">
						<ele>57</ele>
						<time>2026-03-25T16:47:23Z</time>
					</trkpt>
					<trkpt lat="48.917950" lon="1.679620">
						<ele>57</ele>
						<time>2026-03-25T16:47:33Z</time>
					</trkpt>
					<trkpt lat="48.917910" lon="1.679510">
						<ele>57</ele>
						<time>2026-03-25T16:47:34Z</time>
					</trkpt>
					<trkpt lat="48.917380" lon="1.678790">
						<ele>56</ele>
						<time>2026-03-25T16:47:47Z</time>
					</trkpt>
					<trkpt lat="48.917280" lon="1.678590">
						<ele>56</ele>
						<time>2026-03-25T16:47:50Z</time>
					</trkpt>
					<trkpt lat="48.917060" lon="1.678300">
						<ele>56</ele>
						<time>2026-03-25T16:47:55Z</time>
					</trkpt>
					<trkpt lat="48.916750" lon="1.678050">
						<ele>56</ele>
						<time>2026-03-25T16:48:01Z</time>
					</trkpt>
					<trkpt lat="48.916660" lon="1.678070">
						<ele>55</ele>
						<time>2026-03-25T16:48:03Z</time>
					</trkpt>
					<trkpt lat="48.916260" lon="1.677700">
						<ele>56</ele>
						<time>2026-03-25T16:48:11Z</time>
					</trkpt>
					<trkpt lat="48.915740" lon="1.676590">
						<ele>56</ele>
						<time>2026-03-25T16:48:27Z</time>
					</trkpt>
					<trkpt lat="48.915540" lon="1.676200">
						<ele>55</ele>
						<time>2026-03-25T16:48:33Z</time>
					</trkpt>
					<trkpt lat="48.915380" lon="1.675730">
						<ele>54</ele>
						<time>2026-03-25T16:48:39Z</time>
					</trkpt>
					<trkpt lat="48.915100" lon="1.674380">
						<ele>54</ele>
						<time>2026-03-25T16:48:56Z</time>
					</trkpt>
					<trkpt lat="48.914030" lon="1.673510">
						<ele>54</ele>
						<time>2026-03-25T16:49:17Z</time>
					</trkpt>
					<trkpt lat="48.912230" lon="1.672360">
						<ele>55</ele>
						<time>2026-03-25T16:49:52Z</time>
					</trkpt>
					<trkpt lat="48.911770" lon="1.672160">
						<ele>55</ele>
						<time>2026-03-25T16:50:00Z</time>
					</trkpt>
					<trkpt lat="48.911510" lon="1.671970">
						<ele>55</ele>
						<time>2026-03-25T16:50:06Z</time>
					</trkpt>
					<trkpt lat="48.911160" lon="1.671550">
						<ele>57</ele>
						<time>2026-03-25T16:50:13Z</time>
					</trkpt>
					<trkpt lat="48.910890" lon="1.671400">
						<ele>57</ele>
						<time>2026-03-25T16:50:19Z</time>
					</trkpt>
					<trkpt lat="48.910380" lon="1.671250">
						<ele>59</ele>
						<time>2026-03-25T16:50:28Z</time>
					</trkpt>
					<trkpt lat="48.909830" lon="1.671250">
						<ele>59</ele>
						<time>2026-03-25T16:50:38Z</time>
					</trkpt>
					<trkpt lat="48.909140" lon="1.671370">
						<ele>59</ele>
						<time>2026-03-25T16:50:50Z</time>
					</trkpt>
					<trkpt lat="48.909000" lon="1.671470">
						<ele>58</ele>
						<time>2026-03-25T16:50:53Z</time>
					</trkpt>
					<trkpt lat="48.908660" lon="1.671420">
						<ele>58</ele>
						<time>2026-03-25T16:50:59Z</time>
					</trkpt>
					<trkpt lat="48.907910" lon="1.671440">
						<ele>55</ele>
						<time>2026-03-25T16:51:12Z</time>
					</trkpt>
					<trkpt lat="48.907610" lon="1.671460">
						<ele>55</ele>
						<time>2026-03-25T16:51:17Z</time>
					</trkpt>
					<trkpt lat="48.907340" lon="1.671310">
						<ele>55</ele>
						<time>2026-03-25T16:51:23Z</time>
					</trkpt>
					<trkpt lat="48.906790" lon="1.670900">
						<ele>59</ele>
						<time>2026-03-25T16:51:33Z</time>
					</trkpt>
					<trkpt lat="48.906440" lon="1.670640">
						<ele>60</ele>
						<time>2026-03-25T16:51:40Z</time>
					</trkpt>
					<trkpt lat="48.906090" lon="1.670220">
						<ele>60</ele>
						<time>2026-03-25T16:51:48Z</time>
					</trkpt>
					<trkpt lat="48.905900" lon="1.670220">
						<ele>60</ele>
						<time>2026-03-25T16:51:52Z</time>
					</trkpt>
					<trkpt lat="48.905690" lon="1.670010">
						<ele>60</ele>
						<time>2026-03-25T16:51:56Z</time>
					</trkpt>
					<trkpt lat="48.905560" lon="1.669800">
						<ele>60</ele>
						<time>2026-03-25T16:52:00Z</time>
					</trkpt>
					<trkpt lat="48.905410" lon="1.669750">
						<ele>60</ele>
						<time>2026-03-25T16:52:02Z</time>
					</trkpt>
					<trkpt lat="48.904980" lon="1.669620">
						<ele>59</ele>
						<time>2026-03-25T16:52:10Z</time>
					</trkpt>
					<trkpt lat="48.904720" lon="1.669550">
						<ele>59</ele>
						<time>2026-03-25T16:52:15Z</time>
					</trkpt>
					<trkpt lat="48.903390" lon="1.669590">
						<ele>62</ele>
						<time>2026-03-25T16:52:38Z</time>
					</trkpt>
					<trkpt lat="48.902780" lon="1.669970">
						<ele>60</ele>
						<time>2026-03-25T16:52:50Z</time>
					</trkpt>
					<trkpt lat="48.902520" lon="1.670030">
						<ele>60</ele>
						<time>2026-03-25T16:52:55Z</time>
					</trkpt>
					<trkpt lat="48.902380" lon="1.670010">
						<ele>60</ele>
						<time>2026-03-25T16:52:57Z</time>
					</trkpt>
					<trkpt lat="48.902320" lon="1.668940">
						<ele>63</ele>
						<time>2026-03-25T16:53:10Z</time>
					</trkpt>
					<trkpt lat="48.902350" lon="1.667540">
						<ele>75</ele>
						<time>2026-03-25T16:53:26Z</time>
					</trkpt>
					<trkpt lat="48.900720" lon="1.668360">
						<ele>71</ele>
						<time>2026-03-25T16:53:57Z</time>
					</trkpt>
					<trkpt lat="48.900400" lon="1.668530">
						<ele>68</ele>
						<time>2026-03-25T16:54:03Z</time>
					</trkpt>
					<trkpt lat="48.900080" lon="1.668520">
						<ele>67</ele>
						<time>2026-03-25T16:54:09Z</time>
					</trkpt>
					<trkpt lat="48.899600" lon="1.668360">
						<ele>67</ele>
						<time>2026-03-25T16:54:17Z</time>
					</trkpt>
					<trkpt lat="48.899450" lon="1.668320">
						<ele>67</ele>
						<time>2026-03-25T16:54:20Z</time>
					</trkpt>
					<trkpt lat="48.898450" lon="1.667960">
						<ele>63</ele>
						<time>2026-03-25T16:54:38Z</time>
					</trkpt>
					<trkpt lat="48.898380" lon="1.667450">
						<ele>65</ele>
						<time>2026-03-25T16:54:44Z</time>
					</trkpt>
					<trkpt lat="48.898270" lon="1.666900">
						<ele>71</ele>
						<time>2026-03-25T16:54:51Z</time>
					</trkpt>
					<trkpt lat="48.898120" lon="1.666610">
						<ele>73</ele>
						<time>2026-03-25T16:54:55Z</time>
					</trkpt>
					<trkpt lat="48.897800" lon="1.666130">
						<ele>76</ele>
						<time>2026-03-25T16:55:03Z</time>
					</trkpt>
					<trkpt lat="48.897690" lon="1.665730">
						<ele>79</ele>
						<time>2026-03-25T16:55:09Z</time>
					</trkpt>
					<trkpt lat="48.897510" lon="1.665480">
						<ele>79</ele>
						<time>2026-03-25T16:55:13Z</time>
					</trkpt>
					<trkpt lat="48.896880" lon="1.664970">
						<ele>75</ele>
						<time>2026-03-25T16:55:26Z</time>
					</trkpt>
					<trkpt lat="48.896660" lon="1.664670">
						<ele>74</ele>
						<time>2026-03-25T16:55:31Z</time>
					</trkpt>
					<trkpt lat="48.896470" lon="1.664290">
						<ele>76</ele>
						<time>2026-03-25T16:55:36Z</time>
					</trkpt>
					<trkpt lat="48.895770" lon="1.662960">
						<ele>76</ele>
						<time>2026-03-25T16:55:56Z</time>
					</trkpt>
					<trkpt lat="48.895690" lon="1.662670">
						<ele>78</ele>
						<time>2026-03-25T16:56:00Z</time>
					</trkpt>
					<trkpt lat="48.895460" lon="1.662300">
						<ele>77</ele>
						<time>2026-03-25T16:56:06Z</time>
					</trkpt>
					<trkpt lat="48.894960" lon="1.661320">
						<ele>76</ele>
						<time>2026-03-25T16:56:20Z</time>
					</trkpt>
					<trkpt lat="48.894690" lon="1.660510">
						<ele>76</ele>
						<time>2026-03-25T16:56:31Z</time>
					</trkpt>
					<trkpt lat="48.894580" lon="1.659830">
						<ele>75</ele>
						<time>2026-03-25T16:56:39Z</time>
					</trkpt>
					<trkpt lat="48.894570" lon="1.659600">
						<ele>76</ele>
						<time>2026-03-25T16:56:42Z</time>
					</trkpt>
					<trkpt lat="48.894250" lon="1.658140">
						<ele>70</ele>
						<time>2026-03-25T16:57:00Z</time>
					</trkpt>
					<trkpt lat="48.894180" lon="1.657930">
						<ele>69</ele>
						<time>2026-03-25T16:57:03Z</time>
					</trkpt>
					<trkpt lat="48.894060" lon="1.657930">
						<ele>68</ele>
						<time>2026-03-25T16:57:05Z</time>
					</trkpt>
					<trkpt lat="48.893900" lon="1.658070">
						<ele>67</ele>
						<time>2026-03-25T16:57:08Z</time>
					</trkpt>
					<trkpt lat="48.893870" lon="1.658520">
						<ele>67</ele>
						<time>2026-03-25T16:57:13Z</time>
					</trkpt>
					<trkpt lat="48.893900" lon="1.658960">
						<ele>67</ele>
						<time>2026-03-25T16:57:19Z</time>
					</trkpt>
					<trkpt lat="48.893840" lon="1.659190">
						<ele>66</ele>
						<time>2026-03-25T16:57:22Z</time>
					</trkpt>
					<trkpt lat="48.893840" lon="1.659380">
						<ele>66</ele>
						<time>2026-03-25T16:57:24Z</time>
					</trkpt>
					<trkpt lat="48.893710" lon="1.659550">
						<ele>65</ele>
						<time>2026-03-25T16:57:27Z</time>
					</trkpt>
					<trkpt lat="48.893360" lon="1.659710">
						<ele>63</ele>
						<time>2026-03-25T16:57:33Z</time>
					</trkpt>
					<trkpt lat="48.892780" lon="1.659750">
						<ele>68</ele>
						<time>2026-03-25T16:57:44Z</time>
					</trkpt>
					<trkpt lat="48.892580" lon="1.659770">
						<ele>70</ele>
						<time>2026-03-25T16:57:47Z</time>
					</trkpt>
					<trkpt lat="48.892470" lon="1.659900">
						<ele>71</ele>
						<time>2026-03-25T16:57:50Z</time>
					</trkpt>
					<trkpt lat="48.892450" lon="1.660690">
						<ele>75</ele>
						<time>2026-03-25T16:57:59Z</time>
					</trkpt>
					<trkpt lat="48.892470" lon="1.661100">
						<ele>77</ele>
						<time>2026-03-25T16:58:04Z</time>
					</trkpt>
					<trkpt lat="48.892570" lon="1.661640">
						<ele>81</ele>
						<time>2026-03-25T16:58:10Z</time>
					</trkpt>
					<trkpt lat="48.892890" lon="1.663210">
						<ele>82</ele>
						<time>2026-03-25T16:58:30Z</time>
					</trkpt>
					<trkpt lat="48.892990" lon="1.663600">
						<ele>83</ele>
						<time>2026-03-25T16:58:34Z</time>
					</trkpt>
					<trkpt lat="48.893260" lon="1.664130">
						<ele>83</ele>
						<time>2026-03-25T16:58:42Z</time>
					</trkpt>
					<trkpt lat="48.893310" lon="1.664440">
						<ele>84</ele>
						<time>2026-03-25T16:58:46Z</time>
					</trkpt>
					<trkpt lat="48.892670" lon="1.663820">
						<ele>91</ele>
						<time>2026-03-25T16:59:00Z</time>
					</trkpt>
					<trkpt lat="48.891960" lon="1.662860">
						<ele>95</ele>
						<time>2026-03-25T16:59:16Z</time>
					</trkpt>
					<trkpt lat="48.891830" lon="1.662720">
						<ele>96</ele>
						<time>2026-03-25T16:59:19Z</time>
					</trkpt>
					<trkpt lat="48.891140" lon="1.662250">
						<ele>101</ele>
						<time>2026-03-25T16:59:33Z</time>
					</trkpt>
					<trkpt lat="48.890480" lon="1.662030">
						<ele>105</ele>
						<time>2026-03-25T16:59:45Z</time>
					</trkpt>
					<trkpt lat="48.890310" lon="1.661920">
						<ele>105</ele>
						<time>2026-03-25T16:59:48Z</time>
					</trkpt>
					<trkpt lat="48.889430" lon="1.660950">
						<ele>107</ele>
						<time>2026-03-25T17:00:07Z</time>
					</trkpt>
					<trkpt lat="48.888710" lon="1.660190">
						<ele>106</ele>
						<time>2026-03-25T17:00:23Z</time>
					</trkpt>
					<trkpt lat="48.887870" lon="1.659260">
						<ele>105</ele>
						<time>2026-03-25T17:00:41Z</time>
					</trkpt>
					<trkpt lat="48.887680" lon="1.659050">
						<ele>104</ele>
						<time>2026-03-25T17:00:46Z</time>
					</trkpt>
					<trkpt lat="48.885770" lon="1.656690">
						<ele>103</ele>
						<time>2026-03-25T17:01:29Z</time>
					</trkpt>
					<trkpt lat="48.882780" lon="1.653100">
						<ele>114</ele>
						<time>2026-03-25T17:02:37Z</time>
					</trkpt>
					<trkpt lat="48.882580" lon="1.652920">
						<ele>114</ele>
						<time>2026-03-25T17:02:41Z</time>
					</trkpt>
					<trkpt lat="48.882410" lon="1.652870">
						<ele>114</ele>
						<time>2026-03-25T17:02:44Z</time>
					</trkpt>
					<trkpt lat="48.881630" lon="1.652800">
						<ele>116</ele>
						<time>2026-03-25T17:02:58Z</time>
					</trkpt>
					<trkpt lat="48.881550" lon="1.652690">
						<ele>116</ele>
						<time>2026-03-25T17:03:00Z</time>
					</trkpt>
					<trkpt lat="48.881480" lon="1.652280">
						<ele>117</ele>
						<time>2026-03-25T17:03:05Z</time>
					</trkpt>
					<trkpt lat="48.881370" lon="1.652060">
						<ele>118</ele>
						<time>2026-03-25T17:03:08Z</time>
					</trkpt>
					<trkpt lat="48.881200" lon="1.651890">
						<ele>118</ele>
						<time>2026-03-25T17:03:12Z</time>
					</trkpt>
					<trkpt lat="48.880670" lon="1.651750">
						<ele>119</ele>
						<time>2026-03-25T17:03:22Z</time>
					</trkpt>
					<trkpt lat="48.881300" lon="1.650600">
						<ele>120</ele>
						<time>2026-03-25T17:03:39Z</time>
					</trkpt>
					<trkpt lat="48.881660" lon="1.649680">
						<ele>118</ele>
						<time>2026-03-25T17:03:52Z</time>
					</trkpt>
					<trkpt lat="48.881830" lon="1.649540">
						<ele>117</ele>
						<time>2026-03-25T17:03:55Z</time>
					</trkpt>
					<trkpt lat="48.882070" lon="1.649470">
						<ele>117</ele>
						<time>2026-03-25T17:03:59Z</time>
					</trkpt>
					<trkpt lat="48.882260" lon="1.649350">
						<ele>116</ele>
						<time>2026-03-25T17:04:03Z</time>
					</trkpt>
					<trkpt lat="48.883120" lon="1.648380">
						<ele>112</ele>
						<time>2026-03-25T17:04:22Z</time>
					</trkpt>
					<trkpt lat="48.883330" lon="1.647970">
						<ele>110</ele>
						<time>2026-03-25T17:04:28Z</time>
					</trkpt>
					<trkpt lat="48.883740" lon="1.646630">
						<ele>105</ele>
						<time>2026-03-25T17:04:46Z</time>
					</trkpt>
					<trkpt lat="48.883940" lon="1.645910">
						<ele>103</ele>
						<time>2026-03-25T17:04:55Z</time>
					</trkpt>
					<trkpt lat="48.885760" lon="1.643440">
						<ele>104</ele>
						<time>2026-03-25T17:05:38Z</time>
					</trkpt>
					<trkpt lat="48.886910" lon="1.642340">
						<ele>106</ele>
						<time>2026-03-25T17:06:02Z</time>
					</trkpt>
					<trkpt lat="48.887480" lon="1.641810">
						<ele>108</ele>
						<time>2026-03-25T17:06:14Z</time>
					</trkpt>
					<trkpt lat="48.887860" lon="1.641650">
						<ele>107</ele>
						<time>2026-03-25T17:06:21Z</time>
					</trkpt>
					<trkpt lat="48.888130" lon="1.641700">
						<ele>106</ele>
						<time>2026-03-25T17:06:26Z</time>
					</trkpt>
					<trkpt lat="48.888640" lon="1.641830">
						<ele>104</ele>
						<time>2026-03-25T17:06:35Z</time>
					</trkpt>
					<trkpt lat="48.888860" lon="1.641870">
						<ele>103</ele>
						<time>2026-03-25T17:06:39Z</time>
					</trkpt>
					<trkpt lat="48.888980" lon="1.641850">
						<ele>103</ele>
						<time>2026-03-25T17:06:41Z</time>
					</trkpt>
					<trkpt lat="48.889180" lon="1.641720">
						<ele>102</ele>
						<time>2026-03-25T17:06:45Z</time>
					</trkpt>
					<trkpt lat="48.889290" lon="1.641550">
						<ele>100</ele>
						<time>2026-03-25T17:06:48Z</time>
					</trkpt>
					<trkpt lat="48.889440" lon="1.641220">
						<ele>99</ele>
						<time>2026-03-25T17:06:53Z</time>
					</trkpt>
					<trkpt lat="48.890270" lon="1.638550">
						<ele>92</ele>
						<time>2026-03-25T17:07:27Z</time>
					</trkpt>
					<trkpt lat="48.891010" lon="1.637260">
						<ele>84</ele>
						<time>2026-03-25T17:07:47Z</time>
					</trkpt>
					<trkpt lat="48.891430" lon="1.636550">
						<ele>78</ele>
						<time>2026-03-25T17:07:58Z</time>
					</trkpt>
					<trkpt lat="48.892240" lon="1.634810">
						<ele>76</ele>
						<time>2026-03-25T17:08:23Z</time>
					</trkpt>
					<trkpt lat="48.892450" lon="1.635250">
						<ele>74</ele>
						<time>2026-03-25T17:08:30Z</time>
					</trkpt>
					<trkpt lat="48.892620" lon="1.635480">
						<ele>73</ele>
						<time>2026-03-25T17:08:34Z</time>
					</trkpt>
					<trkpt lat="48.892760" lon="1.635610">
						<ele>72</ele>
						<time>2026-03-25T17:08:37Z</time>
					</trkpt>
					<trkpt lat="48.893020" lon="1.635200">
						<ele>73</ele>
						<time>2026-03-25T17:08:43Z</time>
					</trkpt>
					<trkpt lat="48.893130" lon="1.634850">
						<ele>74</ele>
						<time>2026-03-25T17:08:48Z</time>
					</trkpt>
					<trkpt lat="48.893060" lon="1.634880">
						<ele>74</ele>
						<time>2026-03-25T17:08:49Z</time>
					</trkpt>
					<trkpt lat="48.892980" lon="1.635010">
						<ele>73</ele>
						<time>2026-03-25T17:08:51Z</time>
					</trkpt>
					<trkpt lat="48.892910" lon="1.635040">
						<ele>73</ele>
						<time>2026-03-25T17:08:53Z</time>
					</trkpt>
					<trkpt lat="48.892780" lon="1.634980">
						<ele>74</ele>
						<time>2026-03-25T17:08:55Z</time>
					</trkpt>
					<trkpt lat="48.892440" lon="1.634410">
						<ele>78</ele>
						<time>2026-03-25T17:09:04Z</time>
					</trkpt>
					<trkpt lat="48.892030" lon="1.633440">
						<ele>83</ele>
						<time>2026-03-25T17:09:17Z</time>
					</trkpt>
					<trkpt lat="48.891730" lon="1.632980">
						<ele>85</ele>
						<time>2026-03-25T17:09:25Z</time>
					</trkpt>
					<trkpt lat="48.890650" lon="1.631530">
						<ele>90</ele>
						<time>2026-03-25T17:09:51Z</time>
					</trkpt>
					<trkpt lat="48.890380" lon="1.630980">
						<ele>89</ele>
						<time>2026-03-25T17:09:59Z</time>
					</trkpt>
					<trkpt lat="48.890260" lon="1.630670">
						<ele>89</ele>
						<time>2026-03-25T17:10:03Z</time>
					</trkpt>
					<trkpt lat="48.890280" lon="1.630500">
						<ele>90</ele>
						<time>2026-03-25T17:10:05Z</time>
					</trkpt>
					<trkpt lat="48.890790" lon="1.630850">
						<ele>95</ele>
						<time>2026-03-25T17:10:15Z</time>
					</trkpt>
					<trkpt lat="48.891450" lon="1.631620">
						<ele>96</ele>
						<time>2026-03-25T17:10:30Z</time>
					</trkpt>
					<trkpt lat="48.891600" lon="1.631680">
						<ele>97</ele>
						<time>2026-03-25T17:10:32Z</time>
					</trkpt>
					<trkpt lat="48.892050" lon="1.631150">
						<ele>99</ele>
						<time>2026-03-25T17:10:43Z</time>
					</trkpt>
					<trkpt lat="48.892200" lon="1.630600">
						<ele>101</ele>
						<time>2026-03-25T17:10:50Z</time>
					</trkpt>
					<trkpt lat="48.892240" lon="1.629560">
						<ele>104</ele>
						<time>2026-03-25T17:11:02Z</time>
					</trkpt>
					<trkpt lat="48.891730" lon="1.627500">
						<ele>111</ele>
						<time>2026-03-25T17:11:27Z</time>
					</trkpt>
					<trkpt lat="48.892180" lon="1.627370">
						<ele>110</ele>
						<time>2026-03-25T17:11:36Z</time>
					</trkpt>
					<trkpt lat="48.892560" lon="1.627480">
						<ele>109</ele>
						<time>2026-03-25T17:11:42Z</time>
					</trkpt>
					<trkpt lat="48.892560" lon="1.628070">
						<ele>107</ele>
						<time>2026-03-25T17:11:49Z</time>
					</trkpt>
					<trkpt lat="48.892790" lon="1.628000">
						<ele>107</ele>
						<time>2026-03-25T17:11:54Z</time>
					</trkpt>
					<trkpt lat="48.892830" lon="1.628070">
						<ele>106</ele>
						<time>2026-03-25T17:11:55Z</time>
					</trkpt>
					<trkpt lat="48.893260" lon="1.627770">
						<ele>106</ele>
						<time>2026-03-25T17:12:03Z</time>
					</trkpt>
					<trkpt lat="48.893410" lon="1.627550">
						<ele>104</ele>
						<time>2026-03-25T17:12:07Z</time>
					</trkpt>
					<trkpt lat="48.893710" lon="1.626970">
						<ele>99</ele>
						<time>2026-03-25T17:12:15Z</time>
					</trkpt>
					<trkpt lat="48.893810" lon="1.626600">
						<ele>97</ele>
						<time>2026-03-25T17:12:20Z</time>
					</trkpt>
					<trkpt lat="48.893880" lon="1.626230">
						<ele>94</ele>
						<time>2026-03-25T17:12:25Z</time>
					</trkpt>
					<trkpt lat="48.893910" lon="1.625830">
						<ele>92</ele>
						<time>2026-03-25T17:12:29Z</time>
					</trkpt>
					<trkpt lat="48.893920" lon="1.625750">
						<ele>91</ele>
						<time>2026-03-25T17:12:30Z</time>
					</trkpt>
					<trkpt lat="48.893990" lon="1.625710">
						<ele>89</ele>
						<time>2026-03-25T17:12:32Z</time>
					</trkpt>
					<trkpt lat="48.894090" lon="1.626020">
						<ele>89</ele>
						<time>2026-03-25T17:12:36Z</time>
					</trkpt>
					<trkpt lat="48.894320" lon="1.626380">
						<ele>87</ele>
						<time>2026-03-25T17:12:41Z</time>
					</trkpt>
					<trkpt lat="48.894450" lon="1.626500">
						<ele>86</ele>
						<time>2026-03-25T17:12:44Z</time>
					</trkpt>
					<trkpt lat="48.894580" lon="1.626490">
						<ele>85</ele>
						<time>2026-03-25T17:12:47Z</time>
					</trkpt>
					<trkpt lat="48.895030" lon="1.626180">
						<ele>80</ele>
						<time>2026-03-25T17:12:55Z</time>
					</trkpt>
					<trkpt lat="48.895290" lon="1.625710">
						<ele>83</ele>
						<time>2026-03-25T17:13:02Z</time>
					</trkpt>
					<trkpt lat="48.895380" lon="1.625300">
						<ele>85</ele>
						<time>2026-03-25T17:13:08Z</time>
					</trkpt>
					<trkpt lat="48.895650" lon="1.624760">
						<ele>89</ele>
						<time>2026-03-25T17:13:15Z</time>
					</trkpt>
					<trkpt lat="48.895760" lon="1.624420">
						<ele>91</ele>
						<time>2026-03-25T17:13:20Z</time>
					</trkpt>
					<trkpt lat="48.895860" lon="1.624260">
						<ele>93</ele>
						<time>2026-03-25T17:13:22Z</time>
					</trkpt>
					<trkpt lat="48.895990" lon="1.624150">
						<ele>95</ele>
						<time>2026-03-25T17:13:25Z</time>
					</trkpt>
					<trkpt lat="48.896130" lon="1.624140">
						<ele>96</ele>
						<time>2026-03-25T17:13:28Z</time>
					</trkpt>
					<trkpt lat="48.896600" lon="1.623740">
						<ele>103</ele>
						<time>2026-03-25T17:13:37Z</time>
					</trkpt>
					<trkpt lat="48.896690" lon="1.623380">
						<ele>105</ele>
						<time>2026-03-25T17:13:42Z</time>
					</trkpt>
					<trkpt lat="48.896790" lon="1.623230">
						<ele>106</ele>
						<time>2026-03-25T17:13:44Z</time>
					</trkpt>
					<trkpt lat="48.897270" lon="1.622810">
						<ele>108</ele>
						<time>2026-03-25T17:13:54Z</time>
					</trkpt>
					<trkpt lat="48.898210" lon="1.622060">
						<ele>112</ele>
						<time>2026-03-25T17:14:13Z</time>
					</trkpt>
					<trkpt lat="48.898930" lon="1.621910">
						<ele>115</ele>
						<time>2026-03-25T17:14:26Z</time>
					</trkpt>
					<trkpt lat="48.899240" lon="1.621640">
						<ele>116</ele>
						<time>2026-03-25T17:14:32Z</time>
					</trkpt>
					<trkpt lat="48.899850" lon="1.621060">
						<ele>118</ele>
						<time>2026-03-25T17:14:45Z</time>
					</trkpt>
					<trkpt lat="48.900400" lon="1.620200">
						<ele>120</ele>
						<time>2026-03-25T17:14:59Z</time>
					</trkpt>
					<trkpt lat="48.900700" lon="1.619730">
						<ele>120</ele>
						<time>2026-03-25T17:15:07Z</time>
					</trkpt>
					<trkpt lat="48.901170" lon="1.618950">
						<ele>123</ele>
						<time>2026-03-25T17:15:19Z</time>
					</trkpt>
					<trkpt lat="48.901500" lon="1.618240">
						<ele>125</ele>
						<time>2026-03-25T17:15:29Z</time>
					</trkpt>
					<trkpt lat="48.902240" lon="1.618430">
						<ele>129</ele>
						<time>2026-03-25T17:15:43Z</time>
					</trkpt>
					<trkpt lat="48.902320" lon="1.618300">
						<ele>129</ele>
						<time>2026-03-25T17:15:45Z</time>
					</trkpt>
					<trkpt lat="48.902850" lon="1.618650">
						<ele>131</ele>
						<time>2026-03-25T17:15:55Z</time>
					</trkpt>
					<trkpt lat="48.902780" lon="1.619060">
						<ele>131</ele>
						<time>2026-03-25T17:16:00Z</time>
					</trkpt>
					<trkpt lat="48.903030" lon="1.619170">
						<ele>131</ele>
						<time>2026-03-25T17:16:05Z</time>
					</trkpt>
					<trkpt lat="48.903120" lon="1.618790">
						<ele>132</ele>
						<time>2026-03-25T17:16:09Z</time>
					</trkpt>
					<trkpt lat="48.903670" lon="1.619000">
						<ele>132</ele>
						<time>2026-03-25T17:16:19Z</time>
					</trkpt>
					<trkpt lat="48.903540" lon="1.619490">
						<ele>132</ele>
						<time>2026-03-25T17:16:26Z</time>
					</trkpt>
					<trkpt lat="48.904430" lon="1.620280">
						<ele>132</ele>
						<time>2026-03-25T17:16:44Z</time>
					</trkpt>
					<trkpt lat="48.904800" lon="1.620550">
						<ele>131</ele>
						<time>2026-03-25T17:16:51Z</time>
					</trkpt>
					<trkpt lat="48.905070" lon="1.620680">
						<ele>131</ele>
						<time>2026-03-25T17:16:56Z</time>
					</trkpt>
					<trkpt lat="48.904810" lon="1.622340">
						<ele>130</ele>
						<time>2026-03-25T17:17:16Z</time>
					</trkpt>
					<trkpt lat="48.904690" lon="1.623020">
						<ele>131</ele>
						<time>2026-03-25T17:17:24Z</time>
					</trkpt>
					<trkpt lat="48.904510" lon="1.624180">
						<ele>130</ele>
						<time>2026-03-25T17:17:38Z</time>
					</trkpt>
					<trkpt lat="48.904320" lon="1.626070">
						<ele>130</ele>
						<time>2026-03-25T17:18:01Z</time>
					</trkpt>
					<trkpt lat="48.904190" lon="1.627280">
						<ele>129</ele>
						<time>2026-03-25T17:18:15Z</time>
					</trkpt>
					<trkpt lat="48.904140" lon="1.627680">
						<ele>129</ele>
						<time>2026-03-25T17:18:20Z</time>
					</trkpt>
					<trkpt lat="48.903970" lon="1.628470">
						<ele>128</ele>
						<time>2026-03-25T17:18:30Z</time>
					</trkpt>
					<trkpt lat="48.903810" lon="1.629150">
						<ele>129</ele>
						<time>2026-03-25T17:18:38Z</time>
					</trkpt>
					<trkpt lat="48.903540" lon="1.630560">
						<ele>127</ele>
						<time>2026-03-25T17:18:55Z</time>
					</trkpt>
					<trkpt lat="48.903400" lon="1.631470">
						<ele>126</ele>
						<time>2026-03-25T17:19:06Z</time>
					</trkpt>
					<trkpt lat="48.903350" lon="1.632290">
						<ele>127</ele>
						<time>2026-03-25T17:19:16Z</time>
					</trkpt>
					<trkpt lat="48.903350" lon="1.633240">
						<ele>126</ele>
						<time>2026-03-25T17:19:27Z</time>
					</trkpt>
					<trkpt lat="48.903400" lon="1.634310">
						<ele>126</ele>
						<time>2026-03-25T17:19:39Z</time>
					</trkpt>
					<trkpt lat="48.903490" lon="1.634930">
						<ele>127</ele>
						<time>2026-03-25T17:19:47Z</time>
					</trkpt>
					<trkpt lat="48.903590" lon="1.635470">
						<ele>126</ele>
						<time>2026-03-25T17:19:53Z</time>
					</trkpt>
					<trkpt lat="48.903770" lon="1.636030">
						<ele>125</ele>
						<time>2026-03-25T17:20:01Z</time>
					</trkpt>
					<trkpt lat="48.904350" lon="1.637270">
						<ele>122</ele>
						<time>2026-03-25T17:20:18Z</time>
					</trkpt>
					<trkpt lat="48.904640" lon="1.637960">
						<ele>122</ele>
						<time>2026-03-25T17:20:28Z</time>
					</trkpt>
					<trkpt lat="48.904920" lon="1.638710">
						<ele>121</ele>
						<time>2026-03-25T17:20:38Z</time>
					</trkpt>
					<trkpt lat="48.905070" lon="1.639350">
						<ele>120</ele>
						<time>2026-03-25T17:20:46Z</time>
					</trkpt>
					<trkpt lat="48.905120" lon="1.639700">
						<ele>119</ele>
						<time>2026-03-25T17:20:50Z</time>
					</trkpt>
					<trkpt lat="48.905150" lon="1.640040">
						<ele>119</ele>
						<time>2026-03-25T17:20:54Z</time>
					</trkpt>
					<trkpt lat="48.905160" lon="1.640440">
						<ele>118</ele>
						<time>2026-03-25T17:20:59Z</time>
					</trkpt>
					<trkpt lat="48.905150" lon="1.640740">
						<ele>118</ele>
						<time>2026-03-25T17:21:02Z</time>
					</trkpt>
					<trkpt lat="48.905070" lon="1.642130">
						<ele>117</ele>
						<time>2026-03-25T17:21:19Z</time>
					</trkpt>
					<trkpt lat="48.904920" lon="1.643880">
						<ele>116</ele>
						<time>2026-03-25T17:21:39Z</time>
					</trkpt>
					<trkpt lat="48.904840" lon="1.644600">
						<ele>115</ele>
						<time>2026-03-25T17:21:48Z</time>
					</trkpt>
					<trkpt lat="48.904830" lon="1.644920">
						<ele>114</ele>
						<time>2026-03-25T17:21:52Z</time>
					</trkpt>
					<trkpt lat="48.904850" lon="1.645090">
						<ele>114</ele>
						<time>2026-03-25T17:21:54Z</time>
					</trkpt>
					<trkpt lat="48.904900" lon="1.645200">
						<ele>113</ele>
						<time>2026-03-25T17:21:55Z</time>
					</trkpt>
					<trkpt lat="48.905140" lon="1.645360">
						<ele>112</ele>
						<time>2026-03-25T17:22:00Z</time>
					</trkpt>
					<trkpt lat="48.905750" lon="1.645890">
						<ele>110</ele>
						<time>2026-03-25T17:22:12Z</time>
					</trkpt>
					<trkpt lat="48.906250" lon="1.646330">
						<ele>108</ele>
						<time>2026-03-25T17:22:23Z</time>
					</trkpt>
					<trkpt lat="48.906100" lon="1.646880">
						<ele>108</ele>
						<time>2026-03-25T17:22:30Z</time>
					</trkpt>
					<trkpt lat="48.905660" lon="1.647920">
						<ele>108</ele>
						<time>2026-03-25T17:22:44Z</time>
					</trkpt>
					<trkpt lat="48.905670" lon="1.648200">
						<ele>107</ele>
						<time>2026-03-25T17:22:47Z</time>
					</trkpt>
					<trkpt lat="48.906000" lon="1.648760">
						<ele>107</ele>
						<time>2026-03-25T17:22:56Z</time>
					</trkpt>
					<trkpt lat="48.906420" lon="1.649490">
						<ele>105</ele>
						<time>2026-03-25T17:23:08Z</time>
					</trkpt>
					<trkpt lat="48.906700" lon="1.650030">
						<ele>104</ele>
						<time>2026-03-25T17:23:16Z</time>
					</trkpt>
					<trkpt lat="48.907030" lon="1.650480">
						<ele>106</ele>
						<time>2026-03-25T17:23:24Z</time>
					</trkpt>
					<trkpt lat="48.907400" lon="1.650920">
						<ele>108</ele>
						<time>2026-03-25T17:23:32Z</time>
					</trkpt>
					<trkpt lat="48.907650" lon="1.651230">
						<ele>109</ele>
						<time>2026-03-25T17:23:38Z</time>
					</trkpt>
					<trkpt lat="48.907990" lon="1.651560">
						<ele>110</ele>
						<time>2026-03-25T17:23:45Z</time>
					</trkpt>
					<trkpt lat="48.908340" lon="1.651790">
						<ele>111</ele>
						<time>2026-03-25T17:23:52Z</time>
					</trkpt>
					<trkpt lat="48.908880" lon="1.652060">
						<ele>113</ele>
						<time>2026-03-25T17:24:02Z</time>
					</trkpt>
					<trkpt lat="48.909340" lon="1.652300">
						<ele>115</ele>
						<time>2026-03-25T17:24:10Z</time>
					</trkpt>
					<trkpt lat="48.910060" lon="1.652760">
						<ele>118</ele>
						<time>2026-03-25T17:24:24Z</time>
					</trkpt>
					<trkpt lat="48.911330" lon="1.653770">
						<ele>122</ele>
						<time>2026-03-25T17:24:50Z</time>
					</trkpt>
					<trkpt lat="48.912180" lon="1.654560">
						<ele>125</ele>
						<time>2026-03-25T17:25:07Z</time>
					</trkpt>
					<trkpt lat="48.912740" lon="1.655030">
						<ele>127</ele>
						<time>2026-03-25T17:25:19Z</time>
					</trkpt>
					<trkpt lat="48.912930" lon="1.655260">
						<ele>127</ele>
						<time>2026-03-25T17:25:23Z</time>
					</trkpt>
					<trkpt lat="48.913270" lon="1.655070">
						<ele>128</ele>
						<time>2026-03-25T17:25:30Z</time>
					</trkpt>
					<trkpt lat="48.913620" lon="1.654880">
						<ele>128</ele>
						<time>2026-03-25T17:25:36Z</time>
					</trkpt>
					<trkpt lat="48.914400" lon="1.655960">
						<ele>130</ele>
						<time>2026-03-25T17:25:55Z</time>
					</trkpt>
					<trkpt lat="48.914670" lon="1.656250">
						<ele>131</ele>
						<time>2026-03-25T17:26:01Z</time>
					</trkpt>
					<trkpt lat="48.915540" lon="1.656920">
						<ele>133</ele>
						<time>2026-03-25T17:26:18Z</time>
					</trkpt>
					<trkpt lat="48.915980" lon="1.657290">
						<ele>134</ele>
						<time>2026-03-25T17:26:27Z</time>
					</trkpt>
					<trkpt lat="48.916450" lon="1.657680">
						<ele>134</ele>
						<time>2026-03-25T17:26:37Z</time>
					</trkpt>
					<trkpt lat="48.917440" lon="1.658420">
						<ele>136</ele>
						<time>2026-03-25T17:26:56Z</time>
					</trkpt>
					<trkpt lat="48.917780" lon="1.658660">
						<ele>136</ele>
						<time>2026-03-25T17:27:03Z</time>
					</trkpt>
					<trkpt lat="48.918420" lon="1.659130">
						<ele>135</ele>
						<time>2026-03-25T17:27:16Z</time>
					</trkpt>
					<trkpt lat="48.918360" lon="1.659610">
						<ele>134</ele>
						<time>2026-03-25T17:27:21Z</time>
					</trkpt>
					<trkpt lat="48.918190" lon="1.660360">
						<ele>134</ele>
						<time>2026-03-25T17:27:31Z</time>
					</trkpt>
					<trkpt lat="48.917940" lon="1.661180">
						<ele>134</ele>
						<time>2026-03-25T17:27:41Z</time>
					</trkpt>
					<trkpt lat="48.917960" lon="1.661320">
						<ele>134</ele>
						<time>2026-03-25T17:27:43Z</time>
					</trkpt>
					<trkpt lat="48.918030" lon="1.661440">
						<ele>134</ele>
						<time>2026-03-25T17:27:45Z</time>
					</trkpt>
					<trkpt lat="48.918290" lon="1.661680">
						<ele>133</ele>
						<time>2026-03-25T17:27:50Z</time>
					</trkpt>
					<trkpt lat="48.919060" lon="1.662150">
						<ele>132</ele>
						<time>2026-03-25T17:28:05Z</time>
					</trkpt>
					<trkpt lat="48.919090" lon="1.662260">
						<ele>132</ele>
						<time>2026-03-25T17:28:06Z</time>
					</trkpt>
					<trkpt lat="48.918910" lon="1.663160">
						<ele>129</ele>
						<time>2026-03-25T17:28:17Z</time>
					</trkpt>
					<trkpt lat="48.918930" lon="1.663410">
						<ele>128</ele>
						<time>2026-03-25T17:28:20Z</time>
					</trkpt>
					<trkpt lat="48.919050" lon="1.663590">
						<ele>127</ele>
						<time>2026-03-25T17:28:23Z</time>
					</trkpt>
					<trkpt lat="48.920020" lon="1.664020">
						<ele>126</ele>
						<time>2026-03-25T17:28:41Z</time>
					</trkpt>
					<trkpt lat="48.919370" lon="1.667460">
						<ele>113</ele>
						<time>2026-03-25T17:29:23Z</time>
					</trkpt>
					<trkpt lat="48.919340" lon="1.667650">
						<ele>112</ele>
						<time>2026-03-25T17:29:25Z</time>
					</trkpt>
					<trkpt lat="48.919430" lon="1.668220">
						<ele>110</ele>
						<time>2026-03-25T17:29:32Z</time>
					</trkpt>
					<trkpt lat="48.919400" lon="1.668560">
						<ele>109</ele>
						<time>2026-03-25T17:29:36Z</time>
					</trkpt>
					<trkpt lat="48.919320" lon="1.668920">
						<ele>108</ele>
						<time>2026-03-25T17:29:41Z</time>
					</trkpt>
					<trkpt lat="48.919070" lon="1.669820">
						<ele>102</ele>
						<time>2026-03-25T17:29:52Z</time>
					</trkpt>
					<trkpt lat="48.918830" lon="1.670360">
						<ele>99</ele>
						<time>2026-03-25T17:30:00Z</time>
					</trkpt>
					<trkpt lat="48.918420" lon="1.670940">
						<ele>97</ele>
						<time>2026-03-25T17:30:10Z</time>
					</trkpt>
					<trkpt lat="48.917870" lon="1.671840">
						<ele>97</ele>
						<time>2026-03-25T17:30:24Z</time>
					</trkpt>
					<trkpt lat="48.917390" lon="1.673120">
						<ele>78</ele>
						<time>2026-03-25T17:30:41Z</time>
					</trkpt>
					<trkpt lat="48.917100" lon="1.674090">
						<ele>70</ele>
						<time>2026-03-25T17:30:54Z</time>
					</trkpt>
					<trkpt lat="48.916910" lon="1.674800">
						<ele>66</ele>
						<time>2026-03-25T17:31:03Z</time>
					</trkpt>
					<trkpt lat="48.917070" lon="1.675670">
						<ele>64</ele>
						<time>2026-03-25T17:31:13Z</time>
					</trkpt>
					<trkpt lat="48.917200" lon="1.676120">
						<ele>64</ele>
						<time>2026-03-25T17:31:19Z</time>
					</trkpt>
					<trkpt lat="48.917210" lon="1.676230">
						<ele>63</ele>
						<time>2026-03-25T17:31:20Z</time>
					</trkpt>
					<trkpt lat="48.917150" lon="1.676450">
						<ele>62</ele>
						<time>2026-03-25T17:31:23Z</time>
					</trkpt>
					<trkpt lat="48.917070" lon="1.676580">
						<ele>62</ele>
						<time>2026-03-25T17:31:25Z</time>
					</trkpt>
					<trkpt lat="48.916800" lon="1.677020">
						<ele>58</ele>
						<time>2026-03-25T17:31:32Z</time>
					</trkpt>
					<trkpt lat="48.916690" lon="1.677410">
						<ele>56</ele>
						<time>2026-03-25T17:31:37Z</time>
					</trkpt>
					<trkpt lat="48.916690" lon="1.678060">
						<ele>55</ele>
						<time>2026-03-25T17:31:45Z</time>
					</trkpt>
					<trkpt lat="48.916780" lon="1.678090">
						<ele>56</ele>
						<time>2026-03-25T17:31:46Z</time>
					</trkpt>
					<trkpt lat="48.917090" lon="1.678330">
						<ele>57</ele>
						<time>2026-03-25T17:31:53Z</time>
					</trkpt>
					<trkpt lat="48.917480" lon="1.678950">
						<ele>55</ele>
						<time>2026-03-25T17:32:03Z</time>
					</trkpt>
					<trkpt lat="48.917740" lon="1.679290">
						<ele>56</ele>
						<time>2026-03-25T17:32:09Z</time>
					</trkpt>
					<trkpt lat="48.917940" lon="1.679540">
						<ele>57</ele>
						<time>2026-03-25T17:32:13Z</time>
					</trkpt>
					<trkpt lat="48.918090" lon="1.680400">
						<ele>57</ele>
						<time>2026-03-25T17:32:24Z</time>
					</trkpt>
					<trkpt lat="48.918030" lon="1.681010">
						<ele>56</ele>
						<time>2026-03-25T17:32:31Z</time>
					</trkpt>
					<trkpt lat="48.918020" lon="1.681420">
						<ele>55</ele>
						<time>2026-03-25T17:32:36Z</time>
					</trkpt>
					<trkpt lat="48.918020" lon="1.681600">
						<ele>55</ele>
						<time>2026-03-25T17:32:38Z</time>
					</trkpt>
					<trkpt lat="48.918070" lon="1.681750">
						<ele>54</ele>
						<time>2026-03-25T17:32:40Z</time>
					</trkpt>
					<trkpt lat="48.918200" lon="1.682250">
						<ele>55</ele>
						<time>2026-03-25T17:32:46Z</time>
					</trkpt>
					<trkpt lat="48.918550" lon="1.683300">
						<ele>54</ele>
						<time>2026-03-25T17:33:00Z</time>
					</trkpt>
					<trkpt lat="48.918710" lon="1.683610">
						<ele>54</ele>
						<time>2026-03-25T17:33:05Z</time>
					</trkpt>
					<trkpt lat="48.918930" lon="1.683900">
						<ele>55</ele>
						<time>2026-03-25T17:33:10Z</time>
					</trkpt>
					<trkpt lat="48.919230" lon="1.684800">
						<ele>55</ele>
						<time>2026-03-25T17:33:21Z</time>
					</trkpt>
					<trkpt lat="48.919540" lon="1.685520">
						<ele>54</ele>
						<time>2026-03-25T17:33:32Z</time>
					</trkpt>
					<trkpt lat="48.919760" lon="1.686020">
						<ele>53</ele>
						<time>2026-03-25T17:33:39Z</time>
					</trkpt>
					<trkpt lat="48.919940" lon="1.686240">
						<ele>53</ele>
						<time>2026-03-25T17:33:43Z</time>
					</trkpt>
					<trkpt lat="48.920000" lon="1.686290">
						<ele>53</ele>
						<time>2026-03-25T17:33:44Z</time>
					</trkpt>
					<trkpt lat="48.920250" lon="1.686420">
						<ele>53</ele>
						<time>2026-03-25T17:33:49Z</time>
					</trkpt>
					<trkpt lat="48.920720" lon="1.686610">
						<ele>53</ele>
						<time>2026-03-25T17:33:57Z</time>
					</trkpt>
					<trkpt lat="48.922150" lon="1.686920">
						<ele>50</ele>
						<time>2026-03-25T17:34:23Z</time>
					</trkpt>
					<trkpt lat="48.923050" lon="1.687140">
						<ele>52</ele>
						<time>2026-03-25T17:34:39Z</time>
					</trkpt>
					</trkseg>
				</trk>
			</gpx>